createdAt,value
2023-05-12T00:01:57.461Z,101534.53
2023-05-12T00:04:24.982Z,101540.88
2023-05-12T00:06:52.715Z,101536.88
2023-05-12T00:09:20.201Z,101541.94
2023-05-12T00:11:48.569Z,101548.41
2023-05-12T00:14:16.394Z,101547.06
2023-05-12T00:16:44.383Z,101551.50
2023-05-12T00:19:12.162Z,101544.44
2023-05-12T00:21:41.607Z,101549.13
2023-05-12T00:24:09.306Z,101549.69
2023-05-12T00:26:37.045Z,101550.06
2023-05-12T00:29:04.651Z,101555.34
2023-05-12T00:31:33.392Z,101557.22
2023-05-12T00:34:00.917Z,101552.94
2023-05-12T00:36:28.574Z,101553.66
2023-05-12T00:38:56.435Z,101566.78
2023-05-12T00:41:24.524Z,101559.88
2023-05-12T00:43:52.523Z,101561.03
2023-05-12T00:46:20.903Z,101556.50
2023-05-12T00:48:49.598Z,101556.59
2023-05-12T00:51:17.467Z,101553.88
2023-05-12T00:53:49.800Z,101550.22
2023-05-12T00:56:19.208Z,101555.75
2023-05-12T00:58:47.444Z,101557.00
2023-05-12T01:01:16.701Z,101550.84
2023-05-12T01:03:46.324Z,101555.13
2023-05-12T01:06:19.992Z,101552.97
2023-05-12T01:08:47.780Z,101560.88
2023-05-12T01:11:16.287Z,101560.59
2023-05-12T01:13:44.182Z,101558.63
2023-05-12T01:16:15.470Z,101553.41
2023-05-12T01:18:50.145Z,101561.59
2023-05-12T01:21:20.459Z,101561.41
2023-05-12T01:23:58.341Z,101565.00
2023-05-12T01:26:29.975Z,101557.38
2023-05-12T01:28:57.995Z,101561.75
2023-05-12T01:31:27.754Z,101563.56
2023-05-12T01:33:55.698Z,101560.97
2023-05-12T01:36:24.420Z,101568.44
2023-05-12T01:38:52.192Z,101567.50
2023-05-12T01:41:19.655Z,101562.13
2023-05-12T01:43:47.249Z,101559.81
2023-05-12T01:46:15.921Z,101560.53
2023-05-12T01:48:44.133Z,101558.81
2023-05-12T01:51:11.667Z,101555.50
2023-05-12T01:53:39.157Z,101559.13
2023-05-12T01:56:06.891Z,101553.72
2023-05-12T01:58:35.817Z,101557.28
2023-05-12T02:01:03.658Z,101552.13
2023-05-12T02:03:31.358Z,101550.53
2023-05-12T02:05:58.930Z,101564.09
2023-05-12T02:08:26.579Z,101556.50
2023-05-12T02:11:09.775Z,101555.31
2023-05-12T02:13:38.472Z,101556.88
2023-05-12T02:16:07.130Z,101552.50
2023-05-12T02:18:34.790Z,101551.13
2023-05-12T02:21:02.697Z,101549.56
2023-05-12T02:23:31.383Z,101552.78
2023-05-12T02:25:58.939Z,101557.81
2023-05-12T02:28:26.651Z,101560.47
2023-05-12T02:30:54.490Z,101554.53
2023-05-12T02:33:25.218Z,101560.59
2023-05-12T02:35:52.761Z,101553.53
2023-05-12T02:38:20.708Z,101558.19
2023-05-12T02:40:49.382Z,101564.16
2023-05-12T02:43:16.947Z,101561.44
2023-05-12T02:45:44.646Z,101567.09
2023-05-12T02:48:12.113Z,101563.63
2023-05-12T02:50:39.602Z,101565.94
2023-05-12T02:53:07.137Z,101570.16
2023-05-12T02:55:35.429Z,101565.13
2023-05-12T02:58:02.971Z,101568.63
2023-05-12T03:00:30.559Z,101570.94
2023-05-12T03:02:58.287Z,101577.56
2023-05-12T03:05:26.172Z,101576.66
2023-05-12T03:07:53.857Z,101582.59
2023-05-12T03:10:21.697Z,101580.88
2023-05-12T03:12:49.361Z,101577.38
2023-05-12T03:15:17.582Z,101582.66
2023-05-12T03:17:45.289Z,101585.38
2023-05-12T03:20:13.063Z,101590.41
2023-05-12T03:22:40.728Z,101584.06
2023-05-12T03:25:10.450Z,101595.41
2023-05-12T03:27:37.988Z,101596.13
2023-05-12T03:30:06.159Z,101599.75
2023-05-12T03:32:39.279Z,101601.56
2023-05-12T03:35:09.663Z,101589.81
2023-05-12T03:37:37.710Z,101597.56
2023-05-12T03:40:06.415Z,101600.00
2023-05-12T03:42:34.036Z,101597.97
2023-05-12T03:45:01.681Z,101597.69
2023-05-12T03:47:29.461Z,101595.03
2023-05-12T03:49:58.432Z,101597.44
2023-05-12T03:52:26.036Z,101596.47
2023-05-12T03:54:53.630Z,101589.19
2023-05-12T03:57:21.175Z,101590.88
2023-05-12T03:59:48.620Z,101598.56
2023-05-12T04:02:16.484Z,101591.56
2023-05-12T04:04:43.973Z,101590.38
2023-05-12T04:07:11.650Z,101594.72
2023-05-12T04:09:39.491Z,101590.97
2023-05-12T04:12:07.242Z,101596.88
2023-05-12T04:14:42.108Z,101592.38
2023-05-12T04:17:11.100Z,101596.34
2023-05-12T04:19:38.751Z,101589.13
2023-05-12T04:22:06.482Z,101589.84
2023-05-12T04:24:34.032Z,101596.06
2023-05-12T04:27:01.891Z,101593.44
2023-05-12T04:29:30.060Z,101591.72
2023-05-12T04:31:57.758Z,101595.16
2023-05-12T04:34:25.868Z,101594.88
2023-05-12T04:36:53.575Z,101599.22
2023-05-12T04:39:21.375Z,101594.50
2023-05-12T04:41:49.302Z,101592.38
2023-05-12T04:44:16.862Z,101602.81
2023-05-12T04:46:45.106Z,101601.78
2023-05-12T04:49:12.652Z,101595.97
2023-05-12T04:51:43.015Z,101599.31
2023-05-12T04:54:11.202Z,101593.03
2023-05-12T04:56:39.034Z,101599.50
2023-05-12T04:59:07.684Z,101609.03
2023-05-12T05:01:35.572Z,101604.53
2023-05-12T05:04:03.305Z,101603.34
2023-05-12T05:06:31.845Z,101608.53
2023-05-12T05:09:00.537Z,101612.03
2023-05-12T05:11:28.181Z,101605.66
2023-05-12T05:13:55.823Z,101607.44
2023-05-12T05:16:24.306Z,101605.66
2023-05-12T05:18:52.864Z,101611.34
2023-05-12T05:21:21.017Z,101612.84
2023-05-12T05:23:48.804Z,101609.66
2023-05-12T05:26:17.096Z,101613.84
2023-05-12T05:28:44.595Z,101614.59
2023-05-12T05:31:18.737Z,101613.28
2023-05-12T05:33:48.138Z,101620.31
2023-05-12T05:36:16.572Z,101614.72
2023-05-12T05:38:44.073Z,101620.47
2023-05-12T05:41:11.612Z,101613.03
2023-05-12T05:43:39.225Z,101620.66
2023-05-12T05:46:08.101Z,101622.13
2023-05-12T05:48:36.745Z,101621.94
2023-05-12T05:51:05.200Z,101624.84
2023-05-12T05:53:33.622Z,101625.31
2023-05-12T05:56:01.468Z,101619.63
2023-05-12T05:58:29.247Z,101623.56
2023-05-12T06:00:56.772Z,101626.00
2023-05-12T06:03:24.352Z,101616.09
2023-05-12T06:05:52.226Z,101616.63
2023-05-12T06:08:19.925Z,101616.06
2023-05-12T06:10:48.314Z,101615.94
2023-05-12T06:13:17.671Z,101612.72
2023-05-12T06:15:45.282Z,101606.94
2023-05-12T06:18:13.120Z,101612.53
2023-05-12T06:20:41.227Z,101609.81
2023-05-12T06:23:09.046Z,101607.69
2023-05-12T06:25:36.770Z,101610.47
2023-05-12T06:28:04.310Z,101605.81
2023-05-12T06:30:31.885Z,101609.53
2023-05-12T06:32:59.783Z,101608.09
2023-05-12T06:35:28.708Z,101606.31
2023-05-12T06:37:56.408Z,101608.97
2023-05-12T06:40:24.048Z,101606.41
2023-05-12T06:42:51.572Z,101619.28
2023-05-12T06:45:23.624Z,101611.16
2023-05-12T06:47:52.301Z,101622.03
2023-05-12T06:50:20.118Z,101618.25
2023-05-12T06:52:53.552Z,101613.53
2023-05-12T06:55:22.247Z,101617.19
2023-05-12T06:57:55.555Z,101607.34
2023-05-12T07:00:24.756Z,101618.91
2023-05-12T07:02:53.517Z,101614.28
2023-05-12T07:05:21.801Z,101619.53
2023-05-12T07:07:49.684Z,101621.50
2023-05-12T07:10:17.759Z,101616.94
2023-05-12T07:12:45.737Z,101614.53
2023-05-12T07:15:13.232Z,101621.03
2023-05-12T07:17:41.307Z,101617.63
2023-05-12T07:20:09.973Z,101616.81
2023-05-12T07:22:38.984Z,101613.34
2023-05-12T07:25:08.160Z,101607.03
2023-05-12T07:27:35.992Z,101610.22
2023-05-12T07:30:04.233Z,101614.47
2023-05-12T07:32:33.981Z,101613.28
2023-05-12T07:35:01.576Z,101614.56
2023-05-12T07:37:30.608Z,101618.03
2023-05-12T07:39:58.223Z,101614.25
2023-05-12T07:42:25.777Z,101620.81
2023-05-12T07:44:53.238Z,101618.41
2023-05-12T07:47:20.729Z,101617.47
2023-05-12T07:49:48.862Z,101611.78
2023-05-12T07:52:16.434Z,101610.41
2023-05-12T07:54:44.047Z,101601.06
2023-05-12T07:57:11.747Z,101601.44
2023-05-12T07:59:39.295Z,101599.38
2023-05-12T08:02:07.506Z,101595.22
2023-05-12T08:04:35.519Z,101597.91
2023-05-12T08:07:03.204Z,101600.81
2023-05-12T08:09:30.675Z,101586.59
2023-05-12T08:11:58.183Z,101595.97
2023-05-12T08:14:25.908Z,101593.81
2023-05-12T08:16:53.492Z,101596.28
2023-05-12T08:19:21.096Z,101596.63
2023-05-12T08:21:48.556Z,101588.91
2023-05-12T08:24:16.085Z,101596.16
2023-05-12T08:26:43.586Z,101586.69
2023-05-12T08:29:11.582Z,101583.66
2023-05-12T08:31:39.344Z,101586.03
2023-05-12T08:34:10.937Z,101577.06
2023-05-12T08:36:40.233Z,101577.72
2023-05-12T08:39:11.274Z,101573.63
2023-05-12T08:41:58.512Z,101572.63
2023-05-12T08:44:26.688Z,101569.41
2023-05-12T08:46:57.450Z,101577.53
2023-05-12T08:49:29.550Z,101574.13
2023-05-12T08:51:59.542Z,101568.94
2023-05-12T08:54:28.365Z,101566.34
2023-05-12T08:59:27.690Z,101566.16
2023-05-12T09:01:55.540Z,101564.63
2023-05-12T09:04:23.207Z,101562.84
2023-05-12T09:06:53.114Z,101559.06
2023-05-12T09:09:22.311Z,101557.03
2023-05-12T09:11:56.465Z,101553.63
2023-05-12T09:14:26.182Z,101540.69
2023-05-12T09:17:01.804Z,101548.78
2023-05-12T09:19:29.757Z,101546.44
2023-05-12T09:21:58.613Z,101557.44
2023-05-12T09:24:37.539Z,101556.28
2023-05-12T09:27:05.846Z,101554.03
2023-05-12T09:29:37.428Z,101555.28
2023-05-12T09:32:09.798Z,101550.19
2023-05-12T09:34:41.101Z,101551.13
2023-05-12T09:37:09.139Z,101541.91
2023-05-12T09:39:37.024Z,101540.66
2023-05-12T09:42:10.327Z,101538.13
2023-05-12T09:44:39.343Z,101529.97
2023-05-12T09:47:08.057Z,101534.22
2023-05-12T09:49:35.804Z,101531.81
2023-05-12T09:52:05.031Z,101538.56
2023-05-12T09:54:34.414Z,101536.16
2023-05-12T09:57:05.258Z,101529.78
2023-05-12T09:59:38.984Z,101533.13
2023-05-12T10:02:09.519Z,101533.03
2023-05-12T10:04:49.469Z,101515.94
2023-05-12T10:07:18.623Z,101510.88
2023-05-12T10:09:49.047Z,101509.03
2023-05-12T10:12:17.208Z,101514.50
2023-05-12T10:14:45.738Z,101511.84
2023-05-12T10:17:15.242Z,101509.34
2023-05-12T10:19:46.880Z,101519.22
2023-05-12T10:22:16.237Z,101513.59
2023-05-12T10:24:45.783Z,101510.66
2023-05-12T10:27:16.032Z,101516.00
2023-05-12T10:29:44.743Z,101519.16
2023-05-12T10:32:12.407Z,101518.31
2023-05-12T10:34:42.129Z,101512.41
2023-05-12T10:37:11.543Z,101517.03
2023-05-12T10:39:52.940Z,101511.91
2023-05-12T10:42:25.911Z,101512.25
2023-05-12T10:44:56.338Z,101507.06
2023-05-12T10:47:36.986Z,101496.22
2023-05-12T10:50:05.631Z,101505.34
2023-05-12T10:52:33.763Z,101491.72
2023-05-12T10:55:02.802Z,101489.31
2023-05-12T10:57:33.460Z,101486.72
2023-05-12T11:00:03.564Z,101495.41
2023-05-12T11:02:34.949Z,101498.13
2023-05-12T11:05:12.935Z,101494.03
2023-05-12T11:10:15.224Z,101488.78
2023-05-12T11:12:44.618Z,101493.91
2023-05-12T11:15:12.842Z,101491.59
2023-05-12T11:17:41.061Z,101494.84
2023-05-12T11:20:12.053Z,101481.50
2023-05-12T11:22:41.260Z,101481.06
2023-05-12T11:25:10.810Z,101477.41
2023-05-12T11:27:44.836Z,101463.78
2023-05-12T11:30:12.753Z,101480.16
2023-05-12T11:32:41.181Z,101463.72
2023-05-12T11:35:09.952Z,101467.72
2023-05-12T11:37:39.569Z,101474.03
2023-05-12T11:40:27.481Z,101470.16
2023-05-12T11:42:56.294Z,101472.72
2023-05-12T11:45:29.358Z,101469.50
2023-05-12T11:48:11.597Z,101471.06
2023-05-12T11:50:48.776Z,101466.50
2023-05-12T11:53:19.125Z,101465.03
2023-05-12T11:55:51.774Z,101470.84
2023-05-12T11:58:22.091Z,101467.09
2023-05-12T12:00:49.832Z,101462.94
2023-05-12T12:03:18.055Z,101469.41
2023-05-12T12:05:58.154Z,101474.28
2023-05-12T12:08:25.836Z,101458.84
2023-05-12T12:10:53.746Z,101454.34
2023-05-12T12:13:23.954Z,101461.91
2023-05-12T12:15:51.970Z,101454.03
2023-05-12T12:18:19.537Z,101451.69
2023-05-12T12:20:47.645Z,101447.31
2023-05-12T12:23:15.272Z,101440.59
2023-05-12T12:25:43.725Z,101452.78
2023-05-12T12:28:11.252Z,101441.22
2023-05-12T12:30:38.906Z,101441.31
2023-05-12T12:33:06.454Z,101445.25
2023-05-12T12:35:35.202Z,101428.72
2023-05-12T12:38:02.664Z,101431.72
2023-05-12T12:40:30.931Z,101443.56
2023-05-12T12:42:58.421Z,101444.97
2023-05-12T12:45:26.646Z,101441.59
2023-05-12T12:47:55.037Z,101439.31
2023-05-12T12:50:25.050Z,101441.81
2023-05-12T12:52:53.501Z,101438.41
2023-05-12T12:55:21.274Z,101434.56
2023-05-12T12:57:49.007Z,101428.94
2023-05-12T13:00:17.474Z,101430.03
2023-05-12T13:02:45.710Z,101437.47
2023-05-12T13:05:13.317Z,101438.94
2023-05-12T13:07:41.282Z,101438.38
2023-05-12T13:10:10.046Z,101436.78
2023-05-12T13:12:37.915Z,101437.00
2023-05-12T13:15:07.313Z,101436.28
2023-05-12T13:17:35.046Z,101436.31
2023-05-12T13:20:03.896Z,101439.13
2023-05-12T13:22:31.833Z,101432.63
2023-05-12T13:24:59.316Z,101436.72
2023-05-12T13:27:26.853Z,101432.34
2023-05-12T13:29:54.459Z,101429.97
2023-05-12T13:32:22.112Z,101429.00
2023-05-12T13:34:49.663Z,101431.72
2023-05-12T13:37:17.108Z,101432.47
2023-05-12T13:39:44.582Z,101437.66
2023-05-12T13:42:12.331Z,101422.53
2023-05-12T13:44:39.859Z,101412.88
2023-05-12T13:47:10.440Z,101425.09
2023-05-12T13:49:38.097Z,101425.41
2023-05-12T13:52:06.191Z,101425.94
2023-05-12T13:54:33.830Z,101416.25
2023-05-12T13:57:03.969Z,101426.22
2023-05-12T13:59:31.958Z,101429.06
2023-05-12T14:01:59.796Z,101421.44
2023-05-12T14:04:27.455Z,101430.69
2023-05-12T14:06:55.535Z,101426.16
2023-05-12T14:09:23.365Z,101427.13
2023-05-12T14:11:51.083Z,101424.53
2023-05-12T14:14:18.649Z,101426.28
2023-05-12T14:16:46.523Z,101419.69
2023-05-12T14:19:14.149Z,101419.81
2023-05-12T14:21:42.143Z,101423.84
2023-05-12T14:24:10.123Z,101415.66
2023-05-12T14:26:37.588Z,101423.72
2023-05-12T14:29:06.508Z,101420.41
2023-05-12T14:31:36.046Z,101408.63
2023-05-12T14:34:04.389Z,101421.47
2023-05-12T14:36:32.323Z,101413.81
2023-05-12T14:38:59.869Z,101410.81
2023-05-12T14:41:27.429Z,101413.09
2023-05-12T14:43:54.980Z,101416.88
2023-05-12T14:46:22.692Z,101418.22
2023-05-12T14:48:50.385Z,101415.22
2023-05-12T14:51:17.932Z,101416.75
2023-05-12T14:53:45.417Z,101422.44
2023-05-12T14:56:13.065Z,101420.88
2023-05-12T14:58:40.686Z,101422.50
2023-05-12T15:01:09.445Z,101416.94
2023-05-12T15:03:37.367Z,101411.09
2023-05-12T15:06:07.884Z,101415.72
2023-05-12T15:08:35.987Z,101407.84
2023-05-12T15:11:03.355Z,101408.47
2023-05-12T15:13:31.687Z,101416.19
2023-05-12T15:15:59.375Z,101412.50
2023-05-12T15:18:26.963Z,101420.47
2023-05-12T15:20:54.744Z,101418.88
2023-05-12T15:23:22.596Z,101415.06
2023-05-12T15:25:50.253Z,101419.88
2023-05-12T15:28:17.830Z,101410.13
2023-05-12T15:30:45.652Z,101411.59
2023-05-12T15:33:13.336Z,101415.97
2023-05-12T15:35:41.710Z,101412.72
2023-05-12T15:38:09.401Z,101409.72
2023-05-12T15:40:37.428Z,101412.88
2023-05-12T15:43:05.276Z,101415.84
2023-05-12T15:45:32.760Z,101409.06
2023-05-12T15:48:00.674Z,101420.78
2023-05-12T15:50:28.218Z,101419.00
2023-05-12T15:52:55.861Z,101423.44
2023-05-12T15:55:23.876Z,101421.47
2023-05-12T15:57:53.616Z,101421.47
2023-05-12T16:00:22.693Z,101416.97
2023-05-12T16:02:50.522Z,101430.06
2023-05-12T16:05:18.301Z,101423.69
2023-05-12T16:07:48.056Z,101416.28
2023-05-12T16:10:16.005Z,101412.28
2023-05-12T16:12:45.920Z,101422.59
2023-05-12T16:15:14.086Z,101420.06
2023-05-12T16:17:41.952Z,101428.03
2023-05-12T16:20:10.453Z,101428.53
2023-05-12T16:22:38.026Z,101422.44
2023-05-12T16:25:05.896Z,101425.50
2023-05-12T16:27:35.688Z,101425.00
2023-05-12T16:30:03.767Z,101429.66
2023-05-12T16:32:32.333Z,101430.72
2023-05-12T16:35:00.897Z,101432.06
2023-05-12T16:37:28.667Z,101434.28
2023-05-12T16:39:56.200Z,101428.06
2023-05-12T16:42:23.724Z,101429.63
2023-05-12T16:44:57.944Z,101434.16
2023-05-12T16:47:25.640Z,101439.50
2023-05-12T16:49:53.608Z,101437.91
2023-05-12T16:52:21.331Z,101439.97
2023-05-12T16:54:48.832Z,101434.84
2023-05-12T16:57:16.648Z,101439.72
2023-05-12T16:59:44.383Z,101434.59
2023-05-12T17:02:12.009Z,101441.19
2023-05-12T17:04:39.699Z,101437.50
2023-05-12T17:07:07.245Z,101448.94
2023-05-12T17:09:34.721Z,101456.69
2023-05-12T17:12:04.555Z,101460.88
2023-05-12T17:14:33.561Z,101458.78
2023-05-12T17:17:01.432Z,101459.22
2023-05-12T17:19:29.459Z,101465.88
2023-05-12T17:21:57.256Z,101468.94
2023-05-12T17:24:25.006Z,101473.03
2023-05-12T17:26:52.651Z,101480.41
2023-05-12T17:29:20.474Z,101479.28
2023-05-12T17:31:48.158Z,101476.44
2023-05-12T17:34:15.737Z,101472.25
2023-05-12T17:36:43.455Z,101475.66
2023-05-12T17:39:14.116Z,101481.47
2023-05-12T17:41:42.537Z,101483.84
2023-05-12T17:44:10.648Z,101484.94
2023-05-12T17:46:38.487Z,101483.66
2023-05-12T17:49:05.994Z,101484.53
2023-05-12T17:51:33.557Z,101481.59
2023-05-12T17:54:01.080Z,101490.09
2023-05-12T17:56:28.773Z,101486.66
2023-05-12T17:58:56.314Z,101492.00
2023-05-12T18:01:23.972Z,101493.38
2023-05-12T18:03:51.638Z,101491.25
2023-05-12T18:06:19.402Z,101498.00
2023-05-12T18:08:47.225Z,101500.78
2023-05-12T18:11:14.745Z,101507.19
2023-05-12T18:13:42.401Z,101507.31
2023-05-12T18:16:21.320Z,101499.63
2023-05-12T18:18:55.673Z,101510.81
2023-05-12T18:21:23.381Z,101507.63
2023-05-12T18:23:50.864Z,101500.78
2023-05-12T18:26:18.587Z,101512.41
2023-05-12T18:28:46.456Z,101516.47
2023-05-12T18:31:16.486Z,101518.28
2023-05-12T18:33:47.310Z,101512.50
2023-05-12T18:36:15.457Z,101512.63
2023-05-12T18:38:43.422Z,101519.41
2023-05-12T18:41:11.564Z,101514.41
2023-05-12T18:43:39.092Z,101519.09
2023-05-12T18:46:06.671Z,101517.66
2023-05-12T18:48:34.204Z,101521.78
2023-05-12T18:51:01.978Z,101525.72
2023-05-12T18:53:29.677Z,101520.03
2023-05-12T18:55:57.239Z,101520.13
2023-05-12T18:58:24.784Z,101518.44
2023-05-12T19:00:53.347Z,101513.28
2023-05-12T19:03:20.894Z,101518.16
2023-05-12T19:05:49.192Z,101520.38
2023-05-12T19:08:19.136Z,101513.81
2023-05-12T19:10:47.582Z,101513.06
2023-05-12T19:13:15.325Z,101517.75
2023-05-12T19:15:42.862Z,101509.28
2023-05-12T19:18:10.762Z,101511.41
2023-05-12T19:20:38.389Z,101508.28
2023-05-12T19:23:05.997Z,101503.31
2023-05-12T19:25:35.378Z,101501.63
2023-05-12T19:28:03.049Z,101495.59
2023-05-12T19:30:31.050Z,101495.63
2023-05-12T19:32:58.675Z,101494.94
2023-05-12T19:35:26.759Z,101498.66
2023-05-12T19:37:54.280Z,101490.03
2023-05-12T19:40:21.762Z,101486.75
2023-05-12T19:42:50.411Z,101487.88
2023-05-12T19:45:18.142Z,101486.56
2023-05-12T19:47:45.894Z,101488.63
2023-05-12T19:50:13.441Z,101489.03
2023-05-12T19:52:41.563Z,101487.31
2023-05-12T19:55:09.335Z,101490.38
2023-05-12T19:57:37.770Z,101489.69
2023-05-12T20:00:05.936Z,101486.63
2023-05-12T20:02:40.837Z,101486.91
2023-05-12T20:05:09.367Z,101489.09
2023-05-12T20:07:37.399Z,101487.94
2023-05-12T20:10:05.225Z,101491.97
2023-05-12T20:12:33.363Z,101498.91
2023-05-12T20:15:00.971Z,101497.38
2023-05-12T20:17:28.509Z,101497.19
2023-05-12T20:19:57.083Z,101497.09
2023-05-12T20:22:24.598Z,101499.94
2023-05-12T20:24:52.227Z,101492.28
2023-05-12T20:27:19.720Z,101501.16
2023-05-12T20:29:47.150Z,101496.25
2023-05-12T20:32:14.651Z,101495.84
2023-05-12T20:34:42.349Z,101501.19
2023-05-12T20:37:10.148Z,101507.63
2023-05-12T20:39:37.732Z,101505.84
2023-05-12T20:42:06.089Z,101507.72
2023-05-12T20:44:33.920Z,101506.84
2023-05-12T20:47:01.793Z,101519.34
2023-05-12T20:49:29.600Z,101513.38
2023-05-12T20:51:57.083Z,101509.59
2023-05-12T20:54:24.660Z,101514.50
2023-05-12T20:56:52.198Z,101508.72
2023-05-12T20:59:20.115Z,101518.06
2023-05-12T21:01:47.783Z,101518.88
2023-05-12T21:04:15.459Z,101524.28
2023-05-12T21:06:43.263Z,101528.91
2023-05-12T21:09:10.786Z,101520.06
2023-05-12T21:11:38.376Z,101520.31
2023-05-12T21:14:05.850Z,101512.66
2023-05-12T21:16:33.425Z,101523.31
2023-05-12T21:19:00.879Z,101515.69
2023-05-12T21:21:28.776Z,101521.94
2023-05-12T21:23:56.280Z,101518.41
2023-05-12T21:26:23.957Z,101516.09
2023-05-12T21:28:51.517Z,101506.59
2023-05-12T21:31:19.027Z,101505.63
2023-05-12T21:33:46.795Z,101515.41
2023-05-12T21:36:14.317Z,101514.91
2023-05-12T21:38:42.210Z,101517.78
2023-05-12T21:41:09.846Z,101525.00
2023-05-12T21:43:37.452Z,101527.03
2023-05-12T21:46:05.722Z,101516.41
2023-05-12T21:48:33.501Z,101509.28
2023-05-12T21:51:02.770Z,101517.34
2023-05-12T21:53:30.636Z,101519.91
2023-05-12T21:55:58.229Z,101516.78
2023-05-12T21:58:26.145Z,101524.75
2023-05-12T22:00:53.762Z,101513.28
2023-05-12T22:03:22.156Z,101524.22
2023-05-12T22:05:50.095Z,101519.41
2023-05-12T22:08:18.627Z,101521.25
2023-05-12T22:10:47.437Z,101519.72
2023-05-12T22:13:15.262Z,101520.50
2023-05-12T22:15:43.280Z,101524.78
2023-05-12T22:18:10.955Z,101521.56
2023-05-12T22:20:38.626Z,101531.69
2023-05-12T22:23:06.336Z,101521.94
2023-05-12T22:25:33.801Z,101520.38
2023-05-12T22:28:01.230Z,101523.53
2023-05-12T22:30:28.936Z,101525.38
2023-05-12T22:32:56.761Z,101521.66
2023-05-12T22:35:24.318Z,101525.59
2023-05-12T22:37:52.090Z,101524.72
2023-05-12T22:40:23.102Z,101518.09
2023-05-12T22:42:51.029Z,101527.00
2023-05-12T22:45:18.601Z,101523.13
2023-05-12T22:47:46.019Z,101523.13
2023-05-12T22:50:13.482Z,101530.06
2023-05-12T22:52:41.059Z,101527.31
2023-05-12T22:55:08.891Z,101531.47
2023-05-12T22:57:38.614Z,101532.19
2023-05-12T23:00:07.235Z,101525.50
2023-05-12T23:02:35.402Z,101520.72
2023-05-12T23:05:04.205Z,101530.75
2023-05-12T23:07:31.977Z,101522.72
2023-05-12T23:09:59.463Z,101525.09
2023-05-12T23:12:27.017Z,101529.75
2023-05-12T23:14:54.566Z,101529.69
2023-05-12T23:17:22.156Z,101526.59
2023-05-12T23:19:49.742Z,101525.97
2023-05-12T23:22:17.197Z,101529.63
2023-05-12T23:24:44.723Z,101521.16
2023-05-12T23:27:12.318Z,101523.41
2023-05-12T23:29:39.850Z,101521.47
2023-05-12T23:32:07.703Z,101527.91
2023-05-12T23:34:36.412Z,101526.50
2023-05-12T23:37:03.895Z,101530.34
2023-05-12T23:39:31.532Z,101518.91
2023-05-12T23:41:59.015Z,101524.25
2023-05-12T23:44:26.526Z,101525.53
2023-05-12T23:46:54.118Z,101529.56
2023-05-12T23:49:21.633Z,101526.97
2023-05-12T23:51:49.154Z,101524.41
2023-05-12T23:54:16.620Z,101529.38
2023-05-12T23:56:44.342Z,101535.84
2023-05-12T23:59:11.926Z,101533.69
